createdAt,value
2023-06-07T00:00:48.200Z,99.90
2023-06-07T00:03:16.199Z,99.90
2023-06-07T00:05:44.632Z,99.90
2023-06-07T00:08:11.459Z,99.90
2023-06-07T00:10:38.322Z,99.90
2023-06-07T00:13:05.324Z,99.90
2023-06-07T00:15:32.143Z,99.90
2023-06-07T00:18:01.494Z,99.90
2023-06-07T00:20:28.848Z,99.90
2023-06-07T00:22:59.228Z,99.90
2023-06-07T00:25:26.755Z,99.90
2023-06-07T00:27:54.328Z,99.90
2023-06-07T00:30:21.168Z,99.90
2023-06-07T00:32:47.969Z,99.90
2023-06-07T00:35:14.938Z,99.90
2023-06-07T00:37:42.362Z,99.90
2023-06-07T00:40:09.717Z,99.90
2023-06-07T00:42:36.563Z,99.90
2023-06-07T00:45:03.363Z,99.90
2023-06-07T00:47:30.177Z,99.90
2023-06-07T00:49:57.589Z,99.90
2023-06-07T00:52:24.298Z,99.90
2023-06-07T00:54:51.441Z,99.90
2023-06-07T00:57:18.238Z,99.90
2023-06-07T00:59:45.067Z,99.90
2023-06-07T01:02:16.309Z,99.90
2023-06-07T01:04:43.509Z,99.90
2023-06-07T01:07:10.365Z,99.90
2023-06-07T01:09:37.086Z,99.90
2023-06-07T01:12:07.592Z,99.90
2023-06-07T01:14:34.323Z,99.90
2023-06-07T01:17:03.402Z,99.90
2023-06-07T01:19:31.055Z,99.90
2023-06-07T01:22:00.581Z,99.90
2023-06-07T01:24:31.140Z,99.90
2023-06-07T01:26:58.513Z,99.90
2023-06-07T01:29:28.417Z,99.90
2023-06-07T01:31:55.938Z,99.90
2023-06-07T01:34:22.693Z,99.90
2023-06-07T01:36:49.673Z,99.90
2023-06-07T01:39:16.615Z,99.90
2023-06-07T01:41:43.337Z,99.90
2023-06-07T01:44:10.111Z,99.90
2023-06-07T01:46:37.163Z,99.90
2023-06-07T01:49:04.502Z,99.90
2023-06-07T01:51:31.752Z,99.90
2023-06-07T01:53:58.479Z,99.90
2023-06-07T01:56:26.937Z,99.90
2023-06-07T01:59:35.135Z,99.90
2023-06-07T02:02:21.748Z,99.90
2023-06-07T02:04:50.253Z,99.90
2023-06-07T02:07:23.561Z,99.90
2023-06-07T02:09:50.667Z,99.90
2023-06-07T02:12:17.964Z,99.90
2023-06-07T02:14:44.807Z,99.90
2023-06-07T02:17:12.328Z,99.90
2023-06-07T02:19:39.208Z,99.90
2023-06-07T02:22:07.232Z,99.90
2023-06-07T02:24:34.557Z,99.90
2023-06-07T02:27:01.535Z,99.90
2023-06-07T02:29:28.326Z,99.90
2023-06-07T02:31:58.936Z,99.90
2023-06-07T02:34:25.896Z,99.90
2023-06-07T02:36:52.751Z,99.90
2023-06-07T02:39:19.523Z,99.90
2023-06-07T02:41:46.236Z,99.90
2023-06-07T02:44:13.051Z,99.90
2023-06-07T02:46:39.822Z,99.90
2023-06-07T02:49:06.778Z,99.90
2023-06-07T02:51:33.586Z,99.90
2023-06-07T02:54:01.573Z,99.90
2023-06-07T02:56:30.342Z,99.90
2023-06-07T02:58:57.192Z,99.90
2023-06-07T03:01:28.570Z,99.90
2023-06-07T03:03:56.385Z,99.90
2023-06-07T03:06:23.158Z,99.90
2023-06-07T03:08:50.190Z,99.90
2023-06-07T03:11:16.938Z,99.90
2023-06-07T03:13:43.640Z,99.90
2023-06-07T03:16:10.679Z,99.90
2023-06-07T03:18:37.394Z,99.90
2023-06-07T03:21:04.734Z,99.90
2023-06-07T03:23:31.549Z,99.90
2023-06-07T03:26:00.104Z,99.90
2023-06-07T03:28:27.925Z,99.90
2023-06-07T03:30:54.642Z,99.90
2023-06-07T03:33:21.369Z,99.90
2023-06-07T03:35:48.120Z,99.90
2023-06-07T03:38:14.887Z,99.90
2023-06-07T03:40:41.646Z,99.90
2023-06-07T03:43:08.453Z,99.90
2023-06-07T03:45:35.283Z,99.90
2023-06-07T03:48:02.140Z,99.90
2023-06-07T03:50:28.976Z,99.90
2023-06-07T03:52:55.894Z,99.90
2023-06-07T03:55:22.639Z,99.90
2023-06-07T03:57:49.444Z,99.90
2023-06-07T04:00:18.594Z,99.90
2023-06-07T04:02:45.424Z,99.90
2023-06-07T04:05:13.812Z,99.90
2023-06-07T04:07:41.809Z,99.90
2023-06-07T04:10:08.793Z,99.90
2023-06-07T04:12:35.527Z,99.90
2023-06-07T04:15:02.445Z,99.90
2023-06-07T04:17:29.308Z,99.90
2023-06-07T04:19:57.749Z,99.90
2023-06-07T04:22:25.567Z,99.90
2023-06-07T04:24:52.963Z,99.90
2023-06-07T04:27:19.888Z,99.90
2023-06-07T04:29:50.120Z,99.90
2023-06-07T04:32:19.956Z,99.90
2023-06-07T04:34:49.932Z,99.90
2023-06-07T04:37:17.424Z,99.90
2023-06-07T04:39:45.979Z,99.90
2023-06-07T04:42:12.722Z,99.90
2023-06-07T04:44:39.487Z,99.90
2023-06-07T04:47:10.095Z,99.90
2023-06-07T04:49:39.940Z,99.90
2023-06-07T04:52:07.615Z,99.90
2023-06-07T04:54:37.357Z,99.90
2023-06-07T04:57:05.534Z,99.90
2023-06-07T04:59:35.895Z,99.90
2023-06-07T05:02:03.265Z,99.90
2023-06-07T05:04:32.104Z,99.90
2023-06-07T05:06:59.968Z,99.90
2023-06-07T05:09:30.199Z,99.90
2023-06-07T05:11:57.661Z,99.90
2023-06-07T05:14:24.410Z,99.90
2023-06-07T05:16:52.209Z,99.90
2023-06-07T05:19:19.766Z,99.90
2023-06-07T05:21:46.531Z,99.90
2023-06-07T05:24:16.609Z,99.90
2023-06-07T05:26:44.384Z,99.90
2023-06-07T05:29:11.326Z,99.90
2023-06-07T05:31:40.763Z,99.90
2023-06-07T05:34:08.231Z,99.90
2023-06-07T05:36:36.322Z,99.90
2023-06-07T05:39:04.149Z,99.90
2023-06-07T05:41:31.378Z,99.90
2023-06-07T05:43:58.262Z,99.90
2023-06-07T05:46:25.076Z,99.90
2023-06-07T05:48:52.092Z,99.90
2023-06-07T05:51:19.287Z,99.90
2023-06-07T05:53:46.573Z,99.90
2023-06-07T05:56:17.773Z,99.90
2023-06-07T05:58:46.174Z,99.90
2023-06-07T06:01:14.528Z,99.90
2023-06-07T06:03:41.399Z,99.90
2023-06-07T06:06:16.400Z,99.90
2023-06-07T06:08:43.697Z,99.90
2023-06-07T06:11:12.148Z,99.90
2023-06-07T06:13:41.389Z,99.90
2023-06-07T06:16:10.382Z,99.90
2023-06-07T06:18:40.219Z,99.90
2023-06-07T06:21:07.327Z,99.90
2023-06-07T06:23:34.085Z,99.90
2023-06-07T06:26:01.185Z,99.90
2023-06-07T06:28:27.928Z,99.90
2023-06-07T06:30:55.020Z,99.90
2023-06-07T06:33:22.199Z,99.90
2023-06-07T06:35:49.003Z,99.90
2023-06-07T06:38:16.428Z,99.90
2023-06-07T06:40:43.281Z,99.90
2023-06-07T06:43:10.079Z,99.90
2023-06-07T06:45:36.952Z,99.90
2023-06-07T06:48:04.316Z,99.90
2023-06-07T06:50:33.498Z,99.90
2023-06-07T06:53:01.193Z,99.90
2023-06-07T06:55:28.037Z,99.90
2023-06-07T06:57:54.822Z,99.90
2023-06-07T07:00:21.758Z,99.90
2023-06-07T07:02:48.669Z,99.90
2023-06-07T07:05:16.586Z,99.90
2023-06-07T07:07:43.535Z,99.90
2023-06-07T07:10:11.400Z,99.90
2023-06-07T07:12:39.987Z,99.90
2023-06-07T07:15:07.181Z,99.90
2023-06-07T07:17:34.047Z,99.90
2023-06-07T07:20:01.110Z,99.90
2023-06-07T07:22:29.032Z,99.90
2023-06-07T07:24:59.258Z,99.90
2023-06-07T07:27:26.226Z,99.90
2023-06-07T07:29:53.153Z,99.90
2023-06-07T07:32:19.952Z,99.90
2023-06-07T07:34:46.920Z,99.90
2023-06-07T07:37:14.186Z,99.90
2023-06-07T07:39:41.145Z,99.90
2023-06-07T07:42:08.312Z,99.90
2023-06-07T07:44:35.625Z,99.90
2023-06-07T07:47:02.435Z,99.90
2023-06-07T07:49:29.198Z,99.90
2023-06-07T07:51:56.309Z,99.90
2023-06-07T07:54:23.356Z,99.90
2023-06-07T07:56:50.132Z,99.90
2023-06-07T07:59:16.909Z,99.90
2023-06-07T08:01:43.687Z,99.90
2023-06-07T08:04:10.586Z,99.90
2023-06-07T08:06:39.323Z,99.90
2023-06-07T08:09:07.101Z,99.90
2023-06-07T08:11:33.994Z,99.90
2023-06-07T08:14:01.892Z,99.90
2023-06-07T08:16:28.682Z,99.90
2023-06-07T08:18:59.091Z,99.90
2023-06-07T08:21:28.711Z,99.90
2023-06-07T08:23:56.390Z,99.90
2023-06-07T08:26:23.893Z,99.90
2023-06-07T08:28:50.717Z,99.90
2023-06-07T08:31:19.017Z,99.90
2023-06-07T08:33:46.080Z,99.90
2023-06-07T08:36:13.029Z,99.90
2023-06-07T08:38:41.294Z,99.90
2023-06-07T08:41:08.214Z,99.90
2023-06-07T08:43:37.186Z,99.90
2023-06-07T08:46:05.352Z,99.90
2023-06-07T08:48:33.435Z,99.90
2023-06-07T08:51:01.200Z,99.90
2023-06-07T08:53:29.024Z,99.90
2023-06-07T08:55:55.763Z,99.90
2023-06-07T08:58:25.827Z,99.90
2023-06-07T09:00:54.238Z,99.90
2023-06-07T09:03:21.188Z,99.90
2023-06-07T09:05:48.844Z,99.90
2023-06-07T09:08:15.722Z,99.90
2023-06-07T09:10:43.169Z,99.90
2023-06-07T09:13:10.011Z,99.90
2023-06-07T09:15:36.748Z,99.90
2023-06-07T09:18:03.999Z,99.90
2023-06-07T09:20:34.733Z,99.90
2023-06-07T09:23:04.331Z,99.90
2023-06-07T09:25:31.623Z,99.90
2023-06-07T09:27:58.732Z,99.90
2023-06-07T09:30:26.207Z,99.90
2023-06-07T09:32:53.527Z,99.90
2023-06-07T09:35:20.571Z,99.90
2023-06-07T09:37:55.902Z,99.90
2023-06-07T09:40:23.690Z,99.90
2023-06-07T09:43:00.555Z,99.90
2023-06-07T09:45:28.060Z,99.90
2023-06-07T09:48:05.751Z,99.90
2023-06-07T09:50:33.073Z,99.90
2023-06-07T09:52:59.886Z,99.90
2023-06-07T09:55:28.678Z,99.90
2023-06-07T09:57:56.629Z,99.90
2023-06-07T10:00:24.451Z,99.90
2023-06-07T10:02:51.445Z,99.90
2023-06-07T10:05:22.428Z,99.90
2023-06-07T10:07:55.966Z,99.90
2023-06-07T10:10:25.694Z,99.90
2023-06-07T10:12:52.672Z,99.90
2023-06-07T10:15:24.603Z,99.90
2023-06-07T10:17:57.195Z,99.90
2023-06-07T10:20:28.116Z,99.90
2023-06-07T10:23:05.662Z,99.90
2023-06-07T10:25:38.023Z,99.90
2023-06-07T10:28:31.224Z,99.90
2023-06-07T10:31:04.792Z,99.90
2023-06-07T10:33:31.691Z,99.90
2023-06-07T10:35:58.444Z,99.90
2023-06-07T10:38:25.850Z,99.90
2023-06-07T10:40:55.764Z,99.90
2023-06-07T10:43:22.487Z,99.90
2023-06-07T10:45:49.451Z,99.90
2023-06-07T10:48:46.742Z,99.90
2023-06-07T10:51:14.391Z,99.80
2023-06-07T10:53:57.233Z,98.80
2023-06-07T10:56:34.896Z,98.70
2023-06-07T10:59:14.150Z,98.30
2023-06-07T11:01:41.599Z,98.40
2023-06-07T11:04:09.771Z,98.50
2023-06-07T11:07:10.872Z,98.90
2023-06-07T11:09:37.964Z,99.10
2023-06-07T11:12:06.242Z,99.10
2023-06-07T11:14:32.953Z,97.70
2023-06-07T11:16:59.836Z,97.70
2023-06-07T11:19:27.522Z,97.80
2023-06-07T11:21:58.779Z,98.20
2023-06-07T11:24:26.172Z,97.90
2023-06-07T11:26:53.319Z,97.60
2023-06-07T11:29:20.531Z,97.70
2023-06-07T11:32:00.471Z,97.30
2023-06-07T11:34:28.447Z,97.80
2023-06-07T11:37:10.929Z,97.10
2023-06-07T11:39:37.654Z,97.20
2023-06-07T11:42:04.615Z,96.60
2023-06-07T11:44:31.507Z,96.50
2023-06-07T11:46:58.616Z,96.10
2023-06-07T11:49:25.428Z,96.50
2023-06-07T11:51:57.209Z,96.30
2023-06-07T11:54:25.931Z,96.10
2023-06-07T11:56:54.376Z,96.30
2023-06-07T11:59:24.244Z,96.00
2023-06-07T12:01:55.060Z,96.10
2023-06-07T12:04:22.632Z,95.90
2023-06-07T12:06:50.503Z,95.70
2023-06-07T12:09:20.596Z,95.20
2023-06-07T12:11:48.096Z,95.10
2023-06-07T12:14:32.252Z,94.30
2023-06-07T12:16:59.714Z,94.50
2023-06-07T12:19:26.636Z,94.10
2023-06-07T12:21:53.787Z,94.00
2023-06-07T12:24:20.694Z,94.20
2023-06-07T12:26:47.481Z,93.90
2023-06-07T12:29:14.665Z,93.80
2023-06-07T12:31:44.465Z,93.90
2023-06-07T12:34:11.495Z,93.30
2023-06-07T12:36:39.970Z,93.20
2023-06-07T12:39:08.632Z,93.00
2023-06-07T12:41:35.799Z,92.70
2023-06-07T12:44:05.379Z,92.30
2023-06-07T12:46:32.340Z,92.20
2023-06-07T12:48:59.284Z,91.90
2023-06-07T12:51:26.517Z,91.60
2023-06-07T12:53:53.929Z,91.80
2023-06-07T12:56:24.368Z,91.60
2023-06-07T12:58:51.156Z,91.60
2023-06-07T13:01:18.154Z,91.60
2023-06-07T13:03:45.280Z,91.70
2023-06-07T13:06:12.388Z,91.80
2023-06-07T13:08:39.600Z,91.50
2023-06-07T13:11:06.605Z,91.40
2023-06-07T13:13:34.338Z,91.50
2023-06-07T13:16:01.470Z,90.90
2023-06-07T13:18:30.345Z,91.10
2023-06-07T13:20:57.292Z,90.50
2023-06-07T13:23:24.813Z,90.60
2023-06-07T13:25:51.728Z,90.30
2023-06-07T13:28:20.560Z,90.30
2023-06-07T13:30:47.685Z,90.10
2023-06-07T13:33:18.567Z,90.50
2023-06-07T13:35:45.534Z,90.30
2023-06-07T13:38:12.285Z,90.20
2023-06-07T13:40:39.141Z,89.80
2023-06-07T13:43:05.871Z,90.00
2023-06-07T13:45:32.591Z,90.20
2023-06-07T13:47:59.799Z,90.20
2023-06-07T13:50:26.593Z,88.50
2023-06-07T13:52:54.149Z,88.40
2023-06-07T13:55:21.889Z,88.00
2023-06-07T13:57:49.569Z,88.80
2023-06-07T14:00:17.418Z,88.30
2023-06-07T14:02:44.388Z,88.30
2023-06-07T14:05:11.844Z,88.20
2023-06-07T14:07:39.257Z,87.70
2023-06-07T14:10:07.344Z,86.70
2023-06-07T14:12:34.217Z,87.30
2023-06-07T14:15:01.154Z,87.10
2023-06-07T14:17:27.948Z,87.10
2023-06-07T14:19:54.839Z,87.30
2023-06-07T14:22:21.609Z,87.50
2023-06-07T14:24:48.432Z,86.90
2023-06-07T14:27:15.960Z,86.10
2023-06-07T14:29:42.788Z,86.50
2023-06-07T14:32:10.058Z,85.20
2023-06-07T14:34:36.876Z,85.10
2023-06-07T14:37:03.867Z,84.60
2023-06-07T14:39:30.581Z,85.00
2023-06-07T14:41:57.622Z,85.00
2023-06-07T14:44:25.244Z,85.70
2023-06-07T14:46:51.977Z,84.60
2023-06-07T14:49:18.749Z,85.30
2023-06-07T14:51:48.208Z,84.90
2023-06-07T14:54:15.075Z,84.60
2023-06-07T14:56:41.965Z,84.40
2023-06-07T14:59:08.697Z,84.00
2023-06-07T15:01:35.656Z,84.10
2023-06-07T15:04:02.654Z,82.40
2023-06-07T15:06:29.840Z,83.90
2023-06-07T15:08:56.555Z,83.10
2023-06-07T15:11:23.317Z,82.80
2023-06-07T15:13:50.130Z,83.80
2023-06-07T15:16:16.994Z,83.30
2023-06-07T15:18:43.915Z,83.30
2023-06-07T15:21:10.709Z,83.70
2023-06-07T15:23:37.701Z,83.80
2023-06-07T15:26:04.564Z,83.50
2023-06-07T15:28:31.331Z,83.30
2023-06-07T15:30:58.428Z,83.20
2023-06-07T15:33:25.466Z,82.30
2023-06-07T15:35:52.199Z,82.30
2023-06-07T15:38:19.079Z,82.00
2023-06-07T15:40:46.068Z,81.80
2023-06-07T15:43:14.174Z,81.70
2023-06-07T15:45:40.943Z,81.40
2023-06-07T15:48:07.721Z,81.90
2023-06-07T15:50:34.570Z,81.90
2023-06-07T15:53:04.650Z,82.40
2023-06-07T15:55:33.392Z,81.50
2023-06-07T15:58:00.176Z,81.30
2023-06-07T16:00:37.690Z,81.80
2023-06-07T16:03:06.253Z,81.40
2023-06-07T16:05:33.207Z,81.50
2023-06-07T16:08:04.874Z,80.90
2023-06-07T16:10:37.197Z,80.70
2023-06-07T16:13:03.980Z,80.40
2023-06-07T16:15:31.460Z,80.40
2023-06-07T16:17:58.258Z,81.20
2023-06-07T16:20:25.035Z,81.20
2023-06-07T16:22:52.449Z,82.40
2023-06-07T16:25:19.190Z,81.00
2023-06-07T16:27:45.947Z,82.50
2023-06-07T16:30:12.906Z,82.50
2023-06-07T16:32:39.690Z,82.00
2023-06-07T16:35:06.951Z,82.50
2023-06-07T16:37:33.645Z,82.30
2023-06-07T16:40:00.792Z,81.20
2023-06-07T16:42:28.630Z,81.60
2023-06-07T16:44:55.511Z,81.80
2023-06-07T16:47:22.222Z,81.50
2023-06-07T16:49:48.914Z,82.10
2023-06-07T16:52:15.689Z,82.10
2023-06-07T16:54:42.446Z,82.10
2023-06-07T16:57:09.187Z,81.80
2023-06-07T16:59:36.740Z,81.20
2023-06-07T17:02:03.666Z,81.50
2023-06-07T17:04:31.091Z,80.80
2023-06-07T17:06:57.810Z,80.90
2023-06-07T17:09:24.944Z,81.10
2023-06-07T17:11:51.790Z,81.50
2023-06-07T17:14:20.533Z,81.50
2023-06-07T17:16:47.486Z,81.50
2023-06-07T17:19:14.289Z,81.20
2023-06-07T17:21:41.568Z,81.40
2023-06-07T17:24:09.175Z,80.90
2023-06-07T17:26:35.956Z,80.90
2023-06-07T17:29:12.873Z,81.20
2023-06-07T17:31:49.935Z,81.60
2023-06-07T17:34:16.857Z,81.30
2023-06-07T17:36:43.878Z,81.60
2023-06-07T17:39:13.803Z,82.00
2023-06-07T17:41:40.976Z,81.80
2023-06-07T17:44:07.821Z,81.80
2023-06-07T17:46:34.965Z,82.20
2023-06-07T17:49:01.964Z,82.70
2023-06-07T17:51:30.133Z,83.30
2023-06-07T17:53:56.907Z,82.90
2023-06-07T17:56:26.533Z,83.60
2023-06-07T17:58:53.392Z,83.80
2023-06-07T18:01:20.495Z,84.50
2023-06-07T18:03:47.532Z,84.20
2023-06-07T18:06:14.293Z,84.50
2023-06-07T18:08:40.996Z,84.90
2023-06-07T18:11:08.351Z,85.20
2023-06-07T18:13:35.968Z,85.40
2023-06-07T18:16:02.841Z,86.10
2023-06-07T18:18:31.057Z,86.90
2023-06-07T18:20:57.796Z,87.60
2023-06-07T18:23:24.789Z,87.90
2023-06-07T18:25:51.603Z,88.10
2023-06-07T18:28:18.336Z,89.40
2023-06-07T18:30:45.093Z,90.30
2023-06-07T18:33:11.914Z,90.80
2023-06-07T18:35:38.719Z,91.20
2023-06-07T18:38:05.651Z,91.40
2023-06-07T18:40:33.767Z,92.00
2023-06-07T18:43:00.570Z,92.40
2023-06-07T18:45:27.371Z,92.60
2023-06-07T18:47:54.747Z,93.00
2023-06-07T18:50:21.818Z,93.40
2023-06-07T18:52:48.549Z,93.50
2023-06-07T18:55:15.415Z,93.70
2023-06-07T18:57:42.841Z,93.90
2023-06-07T19:00:09.862Z,94.00
2023-06-07T19:02:36.932Z,94.40
2023-06-07T19:05:04.315Z,94.60
2023-06-07T19:07:31.484Z,95.10
2023-06-07T19:09:58.191Z,95.30
2023-06-07T19:12:28.108Z,95.30
2023-06-07T19:14:55.961Z,95.60
2023-06-07T19:17:22.797Z,95.70
2023-06-07T19:19:49.575Z,96.40
2023-06-07T19:22:16.309Z,96.30
2023-06-07T19:24:45.865Z,96.60
2023-06-07T19:27:12.737Z,96.90
2023-06-07T19:29:41.616Z,97.00
2023-06-07T19:32:09.383Z,97.10
2023-06-07T19:34:36.264Z,97.60
2023-06-07T19:37:03.626Z,97.90
2023-06-07T19:39:32.264Z,98.20
2023-06-07T19:42:01.585Z,98.30
2023-06-07T19:44:29.096Z,98.70
2023-06-07T19:46:58.190Z,99.10
2023-06-07T19:49:25.136Z,99.20
2023-06-07T19:51:51.848Z,99.50
2023-06-07T19:54:18.572Z,99.90
2023-06-07T19:56:45.428Z,99.90
2023-06-07T19:59:12.235Z,99.90
2023-06-07T20:01:39.429Z,99.90
2023-06-07T20:04:06.837Z,99.90
2023-06-07T20:06:35.222Z,99.90
2023-06-07T20:09:03.555Z,99.90
2023-06-07T20:11:30.285Z,99.90
2023-06-07T20:13:57.154Z,99.90
2023-06-07T20:16:24.016Z,99.90
2023-06-07T20:18:50.805Z,99.90
2023-06-07T20:21:17.610Z,99.90
2023-06-07T20:23:44.546Z,99.90
2023-06-07T20:26:11.310Z,99.90
2023-06-07T20:28:38.052Z,99.90
2023-06-07T20:31:06.252Z,99.90
2023-06-07T20:33:33.454Z,99.90
2023-06-07T20:36:01.529Z,99.90
2023-06-07T20:38:28.274Z,99.90
2023-06-07T20:40:55.023Z,99.90
2023-06-07T20:43:21.715Z,99.90
2023-06-07T20:45:48.512Z,99.90
2023-06-07T20:48:15.678Z,99.90
2023-06-07T20:50:42.537Z,99.90
2023-06-07T20:53:09.265Z,99.90
2023-06-07T20:55:36.253Z,99.90
2023-06-07T20:58:03.349Z,99.90
2023-06-07T21:00:30.881Z,99.90
2023-06-07T21:02:57.894Z,99.90
2023-06-07T21:05:26.305Z,99.90
2023-06-07T21:07:53.197Z,99.90
2023-06-07T21:10:19.988Z,99.90
2023-06-07T21:12:46.792Z,99.90
2023-06-07T21:15:13.563Z,99.90
2023-06-07T21:17:40.651Z,99.90
2023-06-07T21:20:09.386Z,99.90
2023-06-07T21:22:36.409Z,99.90
2023-06-07T21:25:03.497Z,99.90
2023-06-07T21:27:30.475Z,99.90
2023-06-07T21:29:58.965Z,99.90
2023-06-07T21:32:27.688Z,99.90
2023-06-07T21:34:55.372Z,99.90
2023-06-07T21:37:22.160Z,99.90
2023-06-07T21:39:48.887Z,99.90
2023-06-07T21:42:15.588Z,99.90
2023-06-07T21:44:42.334Z,99.90
2023-06-07T21:47:09.059Z,99.90
2023-06-07T21:49:35.837Z,99.90
2023-06-07T21:52:02.743Z,99.90
2023-06-07T21:54:30.129Z,99.90
2023-06-07T21:56:56.909Z,99.90
2023-06-07T21:59:23.817Z,99.90
2023-06-07T22:01:54.031Z,99.90
2023-06-07T22:04:21.098Z,99.90
2023-06-07T22:06:48.074Z,99.90
2023-06-07T22:09:14.838Z,99.90
2023-06-07T22:11:45.436Z,99.90
2023-06-07T22:14:15.096Z,99.90
2023-06-07T22:16:48.126Z,99.90
2023-06-07T22:19:15.900Z,99.90
2023-06-07T22:21:43.137Z,99.90
2023-06-07T22:24:10.135Z,99.90
2023-06-07T22:26:37.026Z,99.90
2023-06-07T22:29:04.778Z,99.90
2023-06-07T22:31:35.520Z,99.90
2023-06-07T22:34:05.657Z,99.90
2023-06-07T22:36:33.107Z,99.90
2023-06-07T22:39:01.263Z,99.90
2023-06-07T22:41:28.484Z,99.90
2023-06-07T22:43:56.837Z,99.90
2023-06-07T22:46:24.462Z,99.90
2023-06-07T22:48:52.038Z,99.90
2023-06-07T22:51:19.049Z,99.90
2023-06-07T22:53:45.868Z,99.90
2023-06-07T22:56:12.700Z,99.90
2023-06-07T22:58:39.462Z,99.90
2023-06-07T23:01:06.136Z,99.90
2023-06-07T23:03:33.248Z,99.90
2023-06-07T23:06:00.519Z,99.90
2023-06-07T23:08:30.253Z,99.90
2023-06-07T23:10:57.374Z,99.90
2023-06-07T23:13:24.178Z,99.90
2023-06-07T23:15:52.530Z,99.90
2023-06-07T23:18:19.250Z,99.90
2023-06-07T23:20:46.745Z,99.90
2023-06-07T23:23:13.901Z,99.90
2023-06-07T23:25:40.830Z,99.90
2023-06-07T23:28:07.672Z,99.90
2023-06-07T23:30:34.646Z,99.90
2023-06-07T23:33:01.451Z,99.90
2023-06-07T23:35:28.363Z,99.90
2023-06-07T23:37:55.251Z,99.90
2023-06-07T23:40:22.085Z,99.90
2023-06-07T23:42:52.469Z,99.90
2023-06-07T23:45:22.621Z,99.90
2023-06-07T23:47:49.474Z,99.90
2023-06-07T23:50:16.354Z,99.90
2023-06-07T23:52:43.100Z,99.90
2023-06-07T23:55:10.515Z,99.90
2023-06-07T23:57:37.642Z,99.90
